Time;durP1;ratioP1;P1;durP2;ratioP2;P2;SDS_P1;SDS_P2;PMS_P1;PMS_P2;Temp;Humidity;BMP_temperature;BMP_pressure;BME280_temperature;BME280_humidity;BME280_pressure;Samples;Min_cycle;Max_cycle;Signal;HPM_P1;HPM_P2
2023/10/19 00:01:25;;;;;;;22.33;17.23;;;8.50;99.90;;;;;;5037771;28;20030;-82
2023/10/19 00:03:53;;;;;;;23.65;17.83;;;8.50;99.90;;;;;;5016302;28;20088;-83
2023/10/19 00:06:18;;;;;;;22.50;18.27;;;8.50;99.90;;;;;;5019968;28;20033;-82
2023/10/19 00:08:44;;;;;;;22.95;17.55;;;8.50;99.90;;;;;;5033150;28;20799;-83
2023/10/19 00:11:21;;;;;;;22.20;17.20;;;8.50;99.90;;;;;;5035206;28;20084;-83
2023/10/19 00:13:50;;;;;;;25.48;18.98;;;8.50;99.90;;;;;;5019192;28;20042;-82
2023/10/19 00:16:22;;;;;;;23.73;16.83;;;8.50;99.90;;;;;;5019004;28;20041;-82
2023/10/19 00:18:49;;;;;;;22.95;18.52;;;8.50;99.90;;;;;;5019168;28;20040;-83
2023/10/19 00:21:25;;;;;;;25.50;18.98;;;8.50;99.90;;;;;;5036205;28;20060;-83
2023/10/19 00:23:56;;;;;;;23.45;18.40;;;8.50;99.90;;;;;;5030241;28;20465;-82
2023/10/19 00:26:24;;;;;;;24.17;18.58;;;8.50;99.90;;;;;;5033002;28;20034;-83
2023/10/19 00:28:53;;;;;;;25.38;18.40;;;8.60;99.90;;;;;;5017271;28;20072;-83
2023/10/19 00:31:22;;;;;;;27.45;20.02;;;8.50;99.90;;;;;;5032905;28;20048;-82
2023/10/19 00:33:51;;;;;;;21.73;17.67;;;8.60;99.90;;;;;;5033474;28;20056;-83
2023/10/19 00:36:20;;;;;;;23.45;18.83;;;8.50;99.90;;;;;;5033390;28;20067;-82
2023/10/19 00:41:22;;;;;;;23.80;19.10;;;8.60;99.90;;;;;;5035445;28;20385;-82
2023/10/19 00:43:49;;;;;;;24.00;18.38;;;8.60;99.90;;;;;;5037624;28;20727;-83
2023/10/19 00:48:50;;;;;;;24.92;18.00;;;8.60;99.90;;;;;;5034923;28;20067;-83
2023/10/19 00:54:09;;;;;;;25.60;19.05;;;8.60;99.90;;;;;;5034326;28;20080;-83
2023/10/19 00:56:35;;;;;;;29.75;20.95;;;8.60;99.90;;;;;;5033231;28;20053;-83
2023/10/19 00:59:23;;;;;;;29.30;20.85;;;8.50;99.90;;;;;;5033650;28;20033;-83
2023/10/19 01:01:54;;;;;;;29.85;19.95;;;8.50;99.90;;;;;;5032745;28;20446;-83
2023/10/19 01:04:23;;;;;;;31.88;21.15;;;8.60;99.90;;;;;;5017182;28;20511;-83
2023/10/19 01:07:05;;;;;;;30.42;20.80;;;8.60;99.90;;;;;;5017566;28;20102;-82
2023/10/19 01:09:38;;;;;;;28.60;21.30;;;8.50;99.90;;;;;;5017007;28;20064;-85
2023/10/19 01:15:12;;;;;;;29.92;20.92;;;8.60;99.90;;;;;;5049356;28;20053;-82
2023/10/19 01:17:38;;;;;;;31.80;22.00;;;8.60;99.90;;;;;;5042785;28;20097;-82
2023/10/19 01:20:17;;;;;;;31.80;22.77;;;8.50;99.90;;;;;;5039754;28;20547;-84
2023/10/19 01:25:58;;;;;;;28.92;21.17;;;8.50;99.90;;;;;;5045417;28;20049;-83
2023/10/19 01:31:15;;;;;;;29.92;22.38;;;8.50;99.90;;;;;;5041340;28;20052;-83
2023/10/19 01:33:41;;;;;;;31.60;22.35;;;8.50;99.90;;;;;;5022952;28;20029;-83
2023/10/19 01:36:11;;;;;;;34.58;24.23;;;8.50;99.90;;;;;;5035621;28;20038;-83
2023/10/19 01:38:37;;;;;;;29.95;21.95;;;8.50;99.90;;;;;;5020429;28;20454;-83
2023/10/19 01:41:13;;;;;;;35.38;23.52;;;8.50;99.90;;;;;;5036541;28;20045;-82
2023/10/19 01:43:49;;;;;;;32.28;21.88;;;8.50;99.90;;;;;;5037794;28;20044;-82
2023/10/19 01:46:21;;;;;;;32.78;22.52;;;8.50;99.90;;;;;;5023068;28;20045;-82
2023/10/19 01:48:55;;;;;;;34.33;23.00;;;8.50;99.90;;;;;;5036312;28;20068;-82
2023/10/19 01:51:23;;;;;;;34.03;23.52;;;8.50;99.90;;;;;;5018547;28;20064;-82
2023/10/19 01:53:49;;;;;;;31.35;23.95;;;8.50;99.90;;;;;;5034018;28;20049;-83
2023/10/19 01:56:16;;;;;;;33.75;24.95;;;8.50;99.90;;;;;;5019642;28;20492;-82
2023/10/19 01:58:46;;;;;;;30.75;21.88;;;8.50;99.90;;;;;;5036283;28;20095;-83
2023/10/19 02:03:42;;;;;;;32.70;22.60;;;8.60;99.90;;;;;;5036975;28;20045;-84
2023/10/19 02:06:26;;;;;;;28.73;21.02;;;8.60;99.90;;;;;;5018040;28;20044;-83
2023/10/19 02:09:17;;;;;;;31.83;22.35;;;8.60;99.90;;;;;;5035462;28;20034;-83
2023/10/19 02:11:47;;;;;;;30.20;21.17;;;8.60;99.90;;;;;;5034655;28;20042;-83
2023/10/19 02:14:14;;;;;;;27.73;20.80;;;8.60;99.90;;;;;;5018136;28;20418;-83
2023/10/19 02:16:41;;;;;;;31.98;20.65;;;8.60;99.90;;;;;;5017463;28;20582;-83
2023/10/19 02:19:07;;;;;;;26.27;20.33;;;8.60;99.90;;;;;;5035589;28;20033;-84
2023/10/19 02:21:37;;;;;;;26.73;18.60;;;8.60;99.90;;;;;;5032099;28;20045;-83
2023/10/19 02:24:04;;;;;;;31.90;22.27;;;8.70;99.90;;;;;;5033131;28;20091;-83
2023/10/19 02:26:31;;;;;;;32.60;21.92;;;8.70;99.90;;;;;;5019056;28;20103;-83
2023/10/19 02:28:58;;;;;;;28.33;20.90;;;8.70;99.90;;;;;;5034588;28;20450;-83
2023/10/19 02:31:25;;;;;;;25.90;19.77;;;8.70;99.90;;;;;;5019180;28;20045;-83
2023/10/19 02:34:00;;;;;;;31.38;22.23;;;8.70;99.90;;;;;;5035560;28;20042;-83
2023/10/19 02:36:30;;;;;;;24.65;19.95;;;8.70;99.90;;;;;;5034831;28;20519;-83
2023/10/19 02:38:58;;;;;;;24.63;19.77;;;8.70;99.90;;;;;;5035238;28;20037;-82
2023/10/19 02:41:26;;;;;;;23.77;18.20;;;8.70;99.90;;;;;;5035028;28;20057;-82
2023/10/19 02:44:01;;;;;;;26.42;21.55;;;8.70;99.90;;;;;;5033736;28;20037;-83
2023/10/19 02:46:32;;;;;;;26.48;19.45;;;8.70;99.90;;;;;;5018651;28;20041;-83
2023/10/19 02:49:01;;;;;;;24.08;17.67;;;8.70;99.90;;;;;;5036106;28;20147;-83
2023/10/19 02:51:26;;;;;;;26.88;19.70;;;8.80;99.90;;;;;;5018296;28;20090;-82
2023/10/19 02:53:53;;;;;;;27.65;20.77;;;8.80;99.90;;;;;;5033555;28;20124;-83
2023/10/19 02:56:19;;;;;;;25.60;19.83;;;8.80;99.90;;;;;;5017946;28;20117;-83
2023/10/19 02:58:49;;;;;;;31.75;21.70;;;8.80;99.90;;;;;;5031072;28;20073;-83
2023/10/19 03:01:21;;;;;;;25.80;19.48;;;8.80;99.90;;;;;;5037382;28;20514;-82
2023/10/19 03:03:51;;;;;;;25.90;19.70;;;8.80;99.90;;;;;;5031610;28;20038;-83
2023/10/19 03:06:23;;;;;;;25.20;18.55;;;8.80;99.90;;;;;;5029762;28;20076;-82
2023/10/19 03:09:01;;;;;;;30.23;20.95;;;8.80;99.90;;;;;;5033039;28;20085;-83
2023/10/19 03:11:30;;;;;;;24.77;19.25;;;8.80;99.90;;;;;;5025139;28;20385;-81
2023/10/19 03:13:57;;;;;;;27.17;19.35;;;8.80;99.90;;;;;;5030712;28;20041;-84
2023/10/19 03:16:30;;;;;;;30.63;20.63;;;8.80;99.90;;;;;;5030672;28;20121;-82
2023/10/19 03:18:56;;;;;;;25.65;18.80;;;8.80;99.90;;;;;;5017068;28;20494;-83
2023/10/19 03:21:26;;;;;;;28.45;20.45;;;8.90;99.90;;;;;;5035824;28;20110;-83
2023/10/19 03:23:53;;;;;;;26.00;19.95;;;8.90;99.90;;;;;;5033045;28;20041;-84
2023/10/19 03:26:31;;;;;;;32.70;21.13;;;8.90;99.90;;;;;;5033009;28;20045;-81
2023/10/19 03:29:07;;;;;;;31.27;22.27;;;8.90;99.90;;;;;;5016376;28;20064;-83
2023/10/19 03:31:37;;;;;;;31.88;21.52;;;8.90;99.90;;;;;;5032925;28;20033;-83
2023/10/19 03:34:05;;;;;;;31.27;22.38;;;8.90;99.90;;;;;;5013844;28;20041;-83
2023/10/19 03:36:32;;;;;;;31.48;21.20;;;8.90;99.90;;;;;;5032425;28;20041;-83
2023/10/19 03:39:04;;;;;;;34.22;23.27;;;8.90;99.90;;;;;;5016233;28;20037;-84
2023/10/19 03:41:35;;;;;;;30.02;21.50;;;8.90;99.90;;;;;;5031390;28;20042;-83
2023/10/19 03:44:01;;;;;;;30.08;21.77;;;8.90;99.90;;;;;;5025654;28;20037;-84
2023/10/19 03:46:31;;;;;;;30.00;22.05;;;8.90;99.90;;;;;;5031620;28;20041;-83
2023/10/19 03:49:19;;;;;;;29.38;20.50;;;8.90;99.90;;;;;;5021011;28;20038;-84
2023/10/19 03:52:19;;;;;;;28.10;20.17;;;8.90;99.90;;;;;;5012916;28;20156;-84
2023/10/19 03:54:43;;;;;;;31.00;22.63;;;8.90;99.90;;;;;;5029694;28;20046;-83
2023/10/19 03:57:29;;;;;;;27.20;20.63;;;9.00;99.90;;;;;;5029908;28;21821;-84
2023/10/19 03:59:59;;;;;;;30.48;22.33;;;9.00;99.90;;;;;;5013651;28;20030;-84
2023/10/19 04:02:29;;;;;;;33.75;23.30;;;9.00;99.90;;;;;;5030722;28;20041;-84
2023/10/19 04:04:57;;;;;;;29.52;21.88;;;9.00;99.90;;;;;;5030220;28;20044;-84
2023/10/19 04:07:26;;;;;;;29.23;22.15;;;9.00;99.90;;;;;;5007589;28;20503;-83
2023/10/19 04:10:09;;;;;;;28.40;20.95;;;9.00;99.90;;;;;;5019085;28;20044;-83
2023/10/19 04:12:36;;;;;;;30.75;22.38;;;9.00;99.90;;;;;;5048470;28;20561;-83
2023/10/19 04:15:12;;;;;;;31.05;22.40;;;9.10;99.90;;;;;;5020451;28;20237;-83
2023/10/19 04:17:42;;;;;;;26.67;20.65;;;9.10;99.90;;;;;;5039831;28;20120;-83
2023/10/19 04:20:35;;;;;;;28.23;20.85;;;9.10;99.90;;;;;;5040343;28;20029;-83
2023/10/19 04:22:56;;;;;;;27.05;19.58;;;9.10;99.90;;;;;;5033787;28;20038;-83
2023/10/19 04:25:29;;;;;;;28.88;20.83;;;9.20;99.90;;;;;;5024199;28;20067;-83
2023/10/19 04:27:57;;;;;;;25.77;20.25;;;9.10;99.90;;;;;;5044602;28;20091;-83
2023/10/19 04:30:22;;;;;;;23.05;18.67;;;9.10;99.90;;;;;;5022853;28;20481;-83
2023/10/19 04:32:49;;;;;;;24.67;19.27;;;9.20;99.90;;;;;;5024271;28;20041;-83
2023/10/19 04:35:21;;;;;;;24.77;19.42;;;9.20;99.90;;;;;;5022034;28;20052;-83
2023/10/19 04:37:48;;;;;;;26.20;18.85;;;9.20;99.90;;;;;;5022368;28;20054;-83
2023/10/19 04:40:14;;;;;;;23.23;18.73;;;9.20;99.90;;;;;;5021526;28;20092;-84
2023/10/19 04:42:39;;;;;;;23.05;17.38;;;9.20;99.90;;;;;;5022107;28;20037;-83
2023/10/19 04:45:06;;;;;;;22.60;17.20;;;9.20;99.90;;;;;;5021477;28;20092;-83
2023/10/19 04:47:35;;;;;;;19.60;16.30;;;9.20;99.90;;;;;;5016021;28;20037;-83
2023/10/19 04:50:02;;;;;;;19.75;15.95;;;9.20;99.90;;;;;;5041011;28;20075;-83
2023/10/19 04:52:27;;;;;;;22.55;16.50;;;9.30;99.90;;;;;;5029609;28;20049;-83
2023/10/19 04:54:54;;;;;;;21.60;15.77;;;9.30;99.90;;;;;;5019526;28;20041;-83
2023/10/19 04:57:20;;;;;;;26.40;19.45;;;9.30;99.90;;;;;;5030898;28;20494;-83
2023/10/19 04:59:46;;;;;;;22.95;17.48;;;9.30;99.90;;;;;;5020653;28;20067;-82
2023/10/19 05:02:13;;;;;;;21.65;17.52;;;9.30;99.90;;;;;;5046511;28;20037;-82
2023/10/19 05:04:38;;;;;;;22.92;18.30;;;9.30;99.90;;;;;;5048680;28;20037;-83
2023/10/19 05:07:04;;;;;;;21.85;16.90;;;9.30;99.90;;;;;;5032768;28;20052;-83
2023/10/19 05:09:32;;;;;;;19.23;15.50;;;9.40;99.90;;;;;;5031509;28;20053;-82
2023/10/19 05:11:58;;;;;;;18.13;15.40;;;9.40;99.90;;;;;;5031548;28;20053;-83
2023/10/19 05:14:24;;;;;;;20.00;15.13;;;9.40;99.90;;;;;;5031490;28;20692;-84
2023/10/19 05:16:49;;;;;;;21.95;17.02;;;9.40;99.90;;;;;;5025191;28;20049;-83
2023/10/19 05:19:16;;;;;;;20.95;16.15;;;9.40;99.90;;;;;;5016054;28;20029;-83
2023/10/19 05:21:43;;;;;;;21.67;16.73;;;9.50;99.90;;;;;;5014738;28;20041;-83
2023/10/19 05:24:09;;;;;;;19.45;16.42;;;9.50;99.90;;;;;;5028645;28;20045;-83
2023/10/19 05:26:34;;;;;;;22.40;17.50;;;9.50;99.90;;;;;;5033292;28;20050;-83
2023/10/19 05:29:00;;;;;;;23.02;17.08;;;9.60;99.90;;;;;;5014160;28;20111;-82
2023/10/19 05:31:28;;;;;;;18.52;15.93;;;9.50;99.90;;;;;;5032309;28;20535;-84
2023/10/19 05:33:53;;;;;;;25.20;17.67;;;9.50;99.90;;;;;;5033332;28;20737;-83
2023/10/19 05:36:19;;;;;;;17.92;15.82;;;9.50;99.90;;;;;;5031412;28;20124;-83
2023/10/19 05:38:45;;;;;;;19.70;16.42;;;9.60;99.90;;;;;;5024826;28;20376;-83
2023/10/19 05:41:11;;;;;;;18.48;15.63;;;9.50;99.90;;;;;;5032465;28;20033;-82
2023/10/19 05:43:38;;;;;;;19.40;16.05;;;9.60;99.90;;;;;;5028771;28;20064;-83
2023/10/19 05:46:04;;;;;;;16.98;15.18;;;9.50;99.90;;;;;;5018772;28;20125;-84
2023/10/19 05:48:31;;;;;;;17.13;14.95;;;9.50;99.90;;;;;;5016632;28;20065;-86
2023/10/19 05:50:57;;;;;;;18.63;15.00;;;9.60;99.90;;;;;;5036055;28;20091;-83
2023/10/19 05:53:22;;;;;;;18.25;14.75;;;9.50;99.90;;;;;;5021858;28;20049;-83
2023/10/19 05:55:51;;;;;;;21.52;16.50;;;9.60;99.90;;;;;;5036117;28;20064;-84
2023/10/19 05:58:16;;;;;;;22.02;17.02;;;9.60;99.90;;;;;;5033693;28;20541;-83
2023/10/19 06:00:42;;;;;;;19.55;16.23;;;9.60;99.90;;;;;;5030305;28;20037;-84
2023/10/19 06:03:08;;;;;;;19.60;16.00;;;9.60;99.90;;;;;;5013853;28;20401;-84
2023/10/19 06:05:34;;;;;;;19.73;16.30;;;9.60;99.90;;;;;;5029597;28;20030;-84
2023/10/19 06:07:59;;;;;;;18.30;15.95;;;9.60;99.90;;;;;;5031318;28;20040;-84
2023/10/19 06:10:27;;;;;;;18.23;15.70;;;9.60;99.90;;;;;;5014675;28;20076;-84
2023/10/19 06:12:53;;;;;;;18.63;15.80;;;9.60;99.90;;;;;;5031114;28;20045;-83
2023/10/19 06:15:22;;;;;;;19.52;15.68;;;9.60;99.90;;;;;;5015057;28;20025;-84
2023/10/19 06:17:49;;;;;;;22.23;16.88;;;9.60;99.90;;;;;;5027238;28;20041;-84
2023/10/19 06:20:25;;;;;;;18.42;15.90;;;9.70;99.90;;;;;;5028849;28;20037;-84
2023/10/19 06:22:56;;;;;;;18.52;15.88;;;9.70;99.90;;;;;;5031071;28;20041;-85
2023/10/19 06:25:24;;;;;;;17.17;15.38;;;9.70;99.90;;;;;;5015297;28;20037;-84
2023/10/19 06:27:51;;;;;;;17.73;15.23;;;9.70;99.90;;;;;;5034485;28;20103;-85
2023/10/19 06:30:18;;;;;;;19.85;17.23;;;9.70;99.90;;;;;;5031162;28;20174;-83
2023/10/19 06:32:50;;;;;;;21.00;16.42;;;9.70;99.90;;;;;;5030566;28;20092;-84
2023/10/19 06:35:16;;;;;;;17.00;15.20;;;9.70;99.90;;;;;;5029393;28;20072;-84
2023/10/19 06:37:43;;;;;;;19.42;16.85;;;9.80;99.90;;;;;;5028657;28;20096;-83
2023/10/19 06:40:11;;;;;;;23.55;18.15;;;9.80;99.90;;;;;;5028190;28;20121;-84
2023/10/19 06:42:37;;;;;;;19.23;16.27;;;9.80;99.90;;;;;;5006355;28;20037;-83
2023/10/19 06:45:03;;;;;;;23.30;17.20;;;9.80;99.90;;;;;;5027282;28;20037;-84
2023/10/19 06:47:29;;;;;;;19.25;16.27;;;9.80;99.90;;;;;;5028423;28;20048;-84
2023/10/19 06:49:55;;;;;;;18.58;16.50;;;9.90;99.90;;;;;;5013113;28;20090;-84
2023/10/19 06:52:21;;;;;;;20.48;17.15;;;9.90;99.90;;;;;;5012770;28;20080;-84
2023/10/19 06:54:47;;;;;;;20.27;16.75;;;9.90;99.90;;;;;;5013688;28;20053;-84
2023/10/19 06:57:12;;;;;;;19.27;16.73;;;9.90;99.90;;;;;;5012492;28;20036;-83
2023/10/19 06:59:38;;;;;;;20.20;16.38;;;9.90;99.90;;;;;;5024526;28;20136;-84
2023/10/19 07:02:07;;;;;;;19.08;16.45;;;10.00;99.90;;;;;;5014200;28;20029;-85
2023/10/19 07:04:33;;;;;;;21.48;18.42;;;10.00;99.90;;;;;;5013737;28;20176;-83
2023/10/19 07:07:00;;;;;;;30.77;19.95;;;10.00;99.90;;;;;;5048811;28;20030;-83
2023/10/19 07:09:26;;;;;;;22.52;17.52;;;10.00;99.90;;;;;;5022042;28;20034;-84
2023/10/19 07:11:54;;;;;;;22.38;18.38;;;10.00;99.90;;;;;;5031112;28;20029;-84
2023/10/19 07:14:22;;;;;;;20.90;17.15;;;10.10;99.90;;;;;;5010981;28;20116;-85
2023/10/19 07:16:49;;;;;;;22.45;18.50;;;10.10;99.90;;;;;;5014353;28;20388;-84
2023/10/19 07:19:15;;;;;;;23.77;17.73;;;10.10;99.90;;;;;;5014978;28;20025;-85
2023/10/19 07:21:42;;;;;;;19.20;17.13;;;10.20;99.90;;;;;;5011874;28;20041;-84
2023/10/19 07:24:10;;;;;;;18.83;16.83;;;10.20;99.90;;;;;;5009777;28;20416;-85
2023/10/19 07:26:43;;;;;;;19.02;16.73;;;10.20;99.90;;;;;;5027421;28;20044;-86
2023/10/19 07:29:10;;;;;;;21.92;17.92;;;10.20;99.90;;;;;;5028780;28;20112;-85
2023/10/19 07:31:36;;;;;;;22.63;18.05;;;10.20;99.90;;;;;;5028529;28;20163;-84
2023/10/19 07:34:03;;;;;;;21.42;17.95;;;10.20;99.90;;;;;;5028190;28;20125;-84
2023/10/19 07:36:29;;;;;;;23.75;18.95;;;10.20;99.90;;;;;;5025785;28;20049;-84
2023/10/19 07:38:55;;;;;;;23.10;17.67;;;10.30;99.90;;;;;;5023958;28;20056;-84
2023/10/19 07:41:21;;;;;;;20.40;16.92;;;10.20;99.90;;;;;;5028311;28;20108;-85
2023/10/19 07:43:51;;;;;;;21.90;17.48;;;10.20;99.90;;;;;;5034945;28;20097;-84
2023/10/19 07:46:17;;;;;;;23.05;17.80;;;10.30;99.90;;;;;;5011581;28;20557;-85
2023/10/19 07:48:43;;;;;;;23.92;18.75;;;10.30;99.90;;;;;;5026523;28;20133;-85
2023/10/19 07:51:11;;;;;;;24.35;18.95;;;10.20;99.90;;;;;;5027016;28;20064;-85
2023/10/19 07:53:36;;;;;;;23.00;18.02;;;10.30;99.90;;;;;;5033459;28;20044;-84
2023/10/19 07:56:03;;;;;;;27.08;19.13;;;10.40;99.90;;;;;;5027634;28;20049;-84
2023/10/19 07:58:29;;;;;;;25.88;20.23;;;10.40;99.90;;;;;;5026923;28;20522;-85
2023/10/19 08:00:56;;;;;;;25.77;19.80;;;10.40;99.90;;;;;;5025763;28;20035;-85
2023/10/19 08:03:22;;;;;;;25.63;18.25;;;10.40;99.90;;;;;;5012395;28;20111;-84
2023/10/19 08:05:47;;;;;;;23.95;18.70;;;10.40;99.90;;;;;;5028369;28;20184;-85
2023/10/19 08:08:13;;;;;;;23.80;19.42;;;10.40;99.90;;;;;;5013512;28;20043;-85
2023/10/19 08:10:39;;;;;;;22.63;18.45;;;10.50;99.90;;;;;;5022812;28;20388;-84
2023/10/19 08:13:04;;;;;;;27.80;20.75;;;10.50;99.90;;;;;;5006831;28;20029;-85
2023/10/19 08:15:30;;;;;;;24.58;18.67;;;10.50;99.90;;;;;;5029237;28;20065;-84
2023/10/19 08:17:56;;;;;;;23.63;18.90;;;10.50;99.90;;;;;;5029364;28;20037;-85
2023/10/19 08:20:30;;;;;;;25.42;19.33;;;10.60;99.90;;;;;;5028967;28;20117;-85
2023/10/19 08:22:57;;;;;;;27.00;19.00;;;10.60;99.90;;;;;;5027291;28;20065;-85
2023/10/19 08:25:23;;;;;;;23.25;18.73;;;10.60;99.90;;;;;;5012919;28;20120;-85
2023/10/19 08:27:50;;;;;;;28.20;20.80;;;10.70;99.90;;;;;;5011071;28;20129;-84
2023/10/19 08:30:20;;;;;;;24.70;20.23;;;10.70;99.90;;;;;;5046398;28;20392;-83
2023/10/19 08:32:47;;;;;;;25.83;20.73;;;10.70;99.90;;;;;;5031041;28;20037;-85
2023/10/19 08:35:14;;;;;;;28.08;21.35;;;10.70;99.90;;;;;;5042866;28;20127;-85
2023/10/19 08:37:41;;;;;;;25.25;20.60;;;10.80;99.90;;;;;;5012901;28;20128;-85
2023/10/19 08:40:14;;;;;;;26.30;19.92;;;10.80;99.90;;;;;;5029116;28;20037;-85
2023/10/19 08:42:45;;;;;;;29.75;21.88;;;10.90;99.90;;;;;;5013670;28;20045;-85
2023/10/19 08:45:14;;;;;;;34.78;23.98;;;11.00;99.90;;;;;;5017033;28;20123;-84
2023/10/19 08:48:01;;;;;;;28.05;21.92;;;11.00;99.90;;;;;;5028952;28;20068;-85
2023/10/19 08:50:29;;;;;;;32.30;22.05;;;11.10;99.90;;;;;;5010687;28;20104;-84
2023/10/19 08:52:59;;;;;;;30.90;23.25;;;11.20;99.90;;;;;;5022696;28;20084;-83
2023/10/19 08:55:25;;;;;;;30.60;22.77;;;11.10;99.90;;;;;;5026627;28;20033;-83
2023/10/19 08:57:52;;;;;;;27.63;21.70;;;11.20;99.90;;;;;;5028618;28;20033;-84
2023/10/19 09:00:19;;;;;;;30.63;23.67;;;11.20;99.90;;;;;;5012613;28;21238;-84
2023/10/19 09:02:47;;;;;;;29.33;22.45;;;11.20;99.90;;;;;;5014470;28;20080;-84
2023/10/19 09:05:22;;;;;;;26.83;20.88;;;11.30;99.90;;;;;;5032767;28;20041;-85
2023/10/19 09:07:54;;;;;;;27.25;21.33;;;11.30;99.90;;;;;;5032616;28;20060;-84
2023/10/19 09:10:31;;;;;;;26.90;20.83;;;11.40;99.90;;;;;;5031958;28;20059;-85
2023/10/19 09:13:10;;;;;;;26.90;21.33;;;11.40;99.90;;;;;;5026444;28;20045;-85
2023/10/19 09:15:39;;;;;;;24.40;20.23;;;11.50;99.90;;;;;;5010194;28;20411;-85
2023/10/19 09:18:15;;;;;;;24.10;19.30;;;11.50;99.90;;;;;;5032565;28;20082;-84
2023/10/19 09:20:48;;;;;;;23.70;20.13;;;11.50;99.90;;;;;;5012053;28;20041;-85
2023/10/19 09:23:13;;;;;;;23.10;19.27;;;11.50;99.90;;;;;;5015509;28;20361;-84
2023/10/19 09:25:40;;;;;;;25.90;20.98;;;11.50;99.90;;;;;;5019712;28;20388;-85
2023/10/19 09:28:06;;;;;;;28.27;21.23;;;11.50;99.90;;;;;;5020417;28;20038;-84
2023/10/19 09:30:33;;;;;;;26.92;20.90;;;11.50;99.90;;;;;;5013875;28;20033;-84
2023/10/19 09:33:00;;;;;;;26.25;20.60;;;11.50;99.90;;;;;;5037077;28;20075;-84
2023/10/19 09:35:31;;;;;;;28.48;22.20;;;11.60;99.90;;;;;;5017237;28;20045;-84
2023/10/19 09:37:57;;;;;;;27.30;20.88;;;11.60;99.90;;;;;;5023590;28;20504;-84
2023/10/19 09:40:23;;;;;;;27.02;20.65;;;11.60;99.90;;;;;;5027938;28;20082;-83
2023/10/19 09:42:56;;;;;;;27.65;21.90;;;11.60;99.90;;;;;;5015528;28;20030;-84
2023/10/19 09:45:27;;;;;;;27.08;20.88;;;11.70;99.90;;;;;;5029247;28;20118;-84
2023/10/19 09:47:54;;;;;;;27.52;21.77;;;11.70;99.90;;;;;;5015521;28;20048;-85
2023/10/19 09:50:20;;;;;;;34.85;21.95;;;11.70;99.90;;;;;;5041270;28;20040;-84
2023/10/19 09:52:46;;;;;;;27.95;22.08;;;11.70;99.90;;;;;;5030838;28;20045;-84
2023/10/19 09:55:23;;;;;;;31.00;22.30;;;11.70;99.90;;;;;;5016104;28;20041;-83
2023/10/19 09:58:14;;;;;;;30.73;21.90;;;11.80;99.90;;;;;;5031957;28;20050;-84
2023/10/19 10:00:50;;;;;;;30.05;21.75;;;11.90;99.90;;;;;;5043034;28;20348;-84
2023/10/19 10:03:42;;;;;;;28.08;22.52;;;11.90;99.90;;;;;;5026836;28;20038;-85
2023/10/19 10:06:08;;;;;;;31.83;22.38;;;12.00;99.90;;;;;;5027493;28;20030;-83
2023/10/19 10:08:37;;;;;;;27.27;22.17;;;12.10;99.90;;;;;;5015979;28;20140;-84
2023/10/19 10:11:28;;;;;;;26.38;21.35;;;12.10;99.90;;;;;;5032171;28;20107;-84
2023/10/19 10:13:58;;;;;;;25.67;20.17;;;12.20;99.90;;;;;;5031756;28;20119;-83
2023/10/19 10:16:26;;;;;;;28.13;21.75;;;12.30;99.90;;;;;;5034820;28;20836;-83
2023/10/19 10:18:57;;;;;;;26.13;20.45;;;12.30;99.90;;;;;;5015704;28;20029;-83
2023/10/19 10:21:24;;;;;;;24.40;20.00;;;12.30;99.90;;;;;;5018243;28;20037;-82
2023/10/19 10:24:02;;;;;;;25.48;19.95;;;12.30;99.90;;;;;;5027435;28;20430;-83
2023/10/19 10:26:30;;;;;;;27.23;20.25;;;12.30;99.90;;;;;;5014768;28;20029;-83
2023/10/19 10:29:19;;;;;;;26.15;20.58;;;12.30;99.90;;;;;;5017083;28;20068;-82
2023/10/19 10:31:49;;;;;;;23.70;19.75;;;12.40;99.90;;;;;;5027184;28;20045;-84
2023/10/19 10:34:33;;;;;;;25.10;20.13;;;12.40;99.90;;;;;;5025616;28;20034;-82
2023/10/19 10:37:10;;;;;;;24.55;20.52;;;12.50;99.90;;;;;;5027977;28;20119;-83
2023/10/19 10:39:37;;;;;;;24.70;20.88;;;12.50;99.90;;;;;;5018524;28;20072;-83
2023/10/19 10:42:06;;;;;;;25.88;21.63;;;12.50;99.90;;;;;;5026924;28;20034;-82
2023/10/19 10:44:40;;;;;;;28.33;22.17;;;12.60;99.90;;;;;;5033629;28;20063;-83
2023/10/19 10:47:08;;;;;;;29.73;23.38;;;12.60;99.90;;;;;;5017417;28;20040;-81
2023/10/19 10:49:45;;;;;;;29.10;21.85;;;12.70;99.90;;;;;;5017421;28;20431;-82
2023/10/19 10:52:11;;;;;;;26.27;21.70;;;12.70;99.90;;;;;;5031466;28;20517;-83
2023/10/19 10:54:37;;;;;;;27.77;22.70;;;12.70;99.90;;;;;;5015846;28;20044;-83
2023/10/19 10:57:04;;;;;;;29.05;23.70;;;12.70;99.90;;;;;;5035677;28;20485;-82
2023/10/19 10:59:29;;;;;;;25.60;21.00;;;12.60;99.90;;;;;;5035614;28;20408;-83
2023/10/19 11:01:55;;;;;;;25.98;22.25;;;12.60;99.90;;;;;;5034647;28;20029;-83
2023/10/19 11:04:21;;;;;;;26.92;22.65;;;12.60;99.90;;;;;;5033672;28;20056;-83
2023/10/19 11:06:51;;;;;;;29.42;21.88;;;12.60;99.90;;;;;;5036945;28;20167;-82
2023/10/19 11:09:21;;;;;;;25.50;21.67;;;12.60;99.90;;;;;;5016639;28;20124;-83
2023/10/19 11:11:49;;;;;;;23.63;20.10;;;12.60;99.90;;;;;;5018091;28;20077;-82
2023/10/19 11:14:15;;;;;;;27.08;21.85;;;12.60;99.90;;;;;;5033459;28;20037;-83
2023/10/19 11:16:43;;;;;;;28.02;23.10;;;12.70;99.90;;;;;;5033693;28;20049;-82
2023/10/19 11:19:09;;;;;;;28.58;22.35;;;12.70;99.90;;;;;;5017738;28;20052;-82
2023/10/19 11:21:35;;;;;;;27.90;22.90;;;12.70;99.90;;;;;;5016065;28;20037;-83
2023/10/19 11:24:02;;;;;;;27.58;22.60;;;12.80;99.90;;;;;;5033775;28;20539;-81
2023/10/19 11:26:29;;;;;;;26.05;22.50;;;12.80;99.90;;;;;;5033514;28;20041;-82
2023/10/19 11:29:04;;;;;;;28.90;22.77;;;12.90;99.90;;;;;;5032361;28;20037;-83
2023/10/19 11:31:37;;;;;;;27.98;23.60;;;13.00;99.90;;;;;;5035606;28;20094;-83
2023/10/19 11:34:03;;;;;;;26.50;23.58;;;13.10;99.90;;;;;;5036168;28;20063;-84
2023/10/19 11:36:29;;;;;;;27.70;22.23;;;13.20;99.90;;;;;;5030210;28;20581;-83
2023/10/19 11:38:55;;;;;;;27.83;23.20;;;13.30;99.90;;;;;;5019577;28;20061;-83
2023/10/19 11:41:21;;;;;;;27.13;21.73;;;13.40;99.90;;;;;;5018147;28;20048;-83
2023/10/19 11:43:49;;;;;;;26.20;22.50;;;13.50;99.90;;;;;;5036294;28;20038;-83
2023/10/19 11:46:17;;;;;;;24.02;21.08;;;13.70;99.90;;;;;;5027008;28;20465;-83
2023/10/19 11:48:43;;;;;;;22.05;19.65;;;13.80;99.90;;;;;;5035585;28;20041;-83
2023/10/19 11:51:10;;;;;;;21.80;19.02;;;13.80;99.90;;;;;;5044762;28;20048;-82
2023/10/19 11:53:37;;;;;;;22.15;19.80;;;13.90;99.90;;;;;;5043863;28;20049;-81
2023/10/19 11:56:06;;;;;;;23.25;18.90;;;14.00;99.90;;;;;;5033781;28;20037;-81
2023/10/19 11:58:34;;;;;;;23.50;20.08;;;14.10;99.90;;;;;;5028395;28;20030;-81
2023/10/19 12:01:07;;;;;;;22.67;18.75;;;14.10;99.90;;;;;;5038375;28;20025;-81
2023/10/19 12:03:35;;;;;;;22.65;19.17;;;14.30;99.90;;;;;;5038807;28;20044;-80
2023/10/19 12:06:04;;;;;;;20.50;18.30;;;14.30;99.90;;;;;;5037260;28;20046;-83
2023/10/19 12:08:29;;;;;;;20.48;18.40;;;14.40;99.90;;;;;;5033712;28;20037;-80
2023/10/19 12:10:55;;;;;;;20.33;17.40;;;14.50;99.90;;;;;;5034418;28;20063;-80
2023/10/19 12:13:20;;;;;;;21.13;18.73;;;14.50;99.90;;;;;;5042371;28;20055;-80
2023/10/19 12:15:51;;;;;;;20.23;17.98;;;14.40;99.90;;;;;;5020531;28;20053;-83
2023/10/19 12:18:19;;;;;;;23.25;19.00;;;14.30;99.90;;;;;;5020847;28;20037;-82
2023/10/19 12:20:45;;;;;;;20.20;18.10;;;14.30;99.90;;;;;;5020822;28;20065;-83
2023/10/19 12:23:12;;;;;;;20.50;18.15;;;14.40;99.90;;;;;;5033149;28;20033;-82
2023/10/19 12:25:38;;;;;;;21.23;17.70;;;14.50;99.90;;;;;;5019682;28;20041;-83
2023/10/19 12:28:04;;;;;;;19.60;17.58;;;14.60;99.90;;;;;;5030701;28;20046;-82
2023/10/19 12:30:36;;;;;;;20.65;18.45;;;14.60;99.90;;;;;;5033589;28;20105;-82
2023/10/19 12:33:07;;;;;;;20.35;17.52;;;14.50;99.90;;;;;;5031294;28;20068;-81
2023/10/19 12:35:51;;;;;;;22.17;18.25;;;14.50;99.90;;;;;;5019528;28;20068;-84
2023/10/19 12:38:17;;;;;;;;;;;14.40;99.90;;;;;;5019460;28;20486;-83
2023/10/19 12:40:46;;;;;;;19.83;17.73;;;14.50;99.90;;;;;;5033435;28;19924;-82
2023/10/19 12:43:12;;;;;;;20.15;17.98;;;14.50;99.90;;;;;;5013330;28;20459;-83
2023/10/19 12:45:38;;;;;;;19.55;16.65;;;14.50;99.90;;;;;;5023215;28;20038;-83
2023/10/19 12:48:04;;;;;;;19.52;16.33;;;14.60;99.90;;;;;;5033555;28;20075;-83
2023/10/19 12:50:30;;;;;;;19.33;17.17;;;14.50;99.90;;;;;;5015950;28;20041;-84
2023/10/19 12:52:56;;;;;;;23.05;17.20;;;14.40;99.90;;;;;;5019180;28;20435;-84
2023/10/19 12:55:22;;;;;;;19.45;17.13;;;14.30;99.90;;;;;;5013543;28;20944;-83
2023/10/19 12:57:50;;;;;;;19.90;17.80;;;14.10;99.90;;;;;;5016371;28;20178;-83
2023/10/19 13:03:15;;;;;;;23.38;19.20;;;13.90;99.90;;;;;;5017759;28;20092;-83
2023/10/19 13:05:44;;;;;;;23.60;18.90;;;13.70;99.90;;;;;;5033876;28;20041;-84